sensor_id;sensor_type;location;lat;lon;timestamp;P1;durP1;ratioP1;P2;durP2;ratioP2
12871;SDS011;6504;53.766;9.626;2023-03-23T00:01:50;17.43;;;13.70;;
12871;SDS011;6504;53.766;9.626;2023-03-23T00:04:19;17.40;;;13.60;;
12871;SDS011;6504;53.766;9.626;2023-03-23T00:06:48;15.23;;;13.63;;
12871;SDS011;6504;53.766;9.626;2023-03-23T00:09:19;15.27;;;13.07;;
12871;SDS011;6504;53.766;9.626;2023-03-23T00:11:49;16.93;;;15.03;;
12871;SDS011;6504;53.766;9.626;2023-03-23T00:14:34;16.43;;;14.73;;
12871;SDS011;6504;53.766;9.626;2023-03-23T00:17:07;16.83;;;15.10;;
12871;SDS011;6504;53.766;9.626;2023-03-23T00:19:40;16.60;;;14.43;;
12871;SDS011;6504;53.766;9.626;2023-03-23T00:22:16;16.47;;;14.77;;
12871;SDS011;6504;53.766;9.626;2023-03-23T00:24:46;17.53;;;15.63;;
12871;SDS011;6504;53.766;9.626;2023-03-23T00:27:16;17.00;;;15.20;;
12871;SDS011;6504;53.766;9.626;2023-03-23T00:29:49;20.80;;;15.67;;
12871;SDS011;6504;53.766;9.626;2023-03-23T00:32:20;17.23;;;15.30;;
12871;SDS011;6504;53.766;9.626;2023-03-23T00:34:54;17.13;;;15.33;;
12871;SDS011;6504;53.766;9.626;2023-03-23T00:37:24;16.43;;;14.70;;
12871;SDS011;6504;53.766;9.626;2023-03-23T00:39:53;17.43;;;15.57;;
12871;SDS011;6504;53.766;9.626;2023-03-23T00:42:26;17.07;;;15.27;;
12871;SDS011;6504;53.766;9.626;2023-03-23T00:44:56;19.50;;;16.53;;
12871;SDS011;6504;53.766;9.626;2023-03-23T00:47:26;17.57;;;14.87;;
12871;SDS011;6504;53.766;9.626;2023-03-23T00:49:56;17.83;;;15.93;;
12871;SDS011;6504;53.766;9.626;2023-03-23T00:52:26;17.60;;;15.80;;
12871;SDS011;6504;53.766;9.626;2023-03-23T00:54:54;17.43;;;15.60;;
12871;SDS011;6504;53.766;9.626;2023-03-23T00:57:27;18.93;;;15.93;;
12871;SDS011;6504;53.766;9.626;2023-03-23T00:59:57;17.90;;;16.10;;
12871;SDS011;6504;53.766;9.626;2023-03-23T01:02:25;18.00;;;16.30;;
12871;SDS011;6504;53.766;9.626;2023-03-23T01:04:54;19.20;;;17.30;;
12871;SDS011;6504;53.766;9.626;2023-03-23T01:07:24;18.87;;;16.97;;
12871;SDS011;6504;53.766;9.626;2023-03-23T01:09:55;17.70;;;15.93;;
12871;SDS011;6504;53.766;9.626;2023-03-23T01:12:26;19.33;;;17.30;;
12871;SDS011;6504;53.766;9.626;2023-03-23T01:14:54;17.77;;;16.07;;
12871;SDS011;6504;53.766;9.626;2023-03-23T01:17:28;17.80;;;15.90;;
12871;SDS011;6504;53.766;9.626;2023-03-23T01:19:57;19.53;;;17.53;;
12871;SDS011;6504;53.766;9.626;2023-03-23T01:22:25;18.17;;;16.27;;
12871;SDS011;6504;53.766;9.626;2023-03-23T01:24:54;18.07;;;16.37;;
12871;SDS011;6504;53.766;9.626;2023-03-23T01:27:23;17.50;;;15.87;;
12871;SDS011;6504;53.766;9.626;2023-03-23T01:29:52;18.13;;;16.27;;
12871;SDS011;6504;53.766;9.626;2023-03-23T01:32:22;19.37;;;17.47;;
12871;SDS011;6504;53.766;9.626;2023-03-23T01:34:51;18.43;;;16.57;;
12871;SDS011;6504;53.766;9.626;2023-03-23T01:37:22;18.77;;;16.97;;
12871;SDS011;6504;53.766;9.626;2023-03-23T01:39:52;19.20;;;17.30;;
12871;SDS011;6504;53.766;9.626;2023-03-23T01:42:21;18.60;;;16.87;;
12871;SDS011;6504;53.766;9.626;2023-03-23T01:47:54;18.63;;;16.83;;
12871;SDS011;6504;53.766;9.626;2023-03-23T01:50:41;19.40;;;17.50;;
12871;SDS011;6504;53.766;9.626;2023-03-23T01:53:14;20.03;;;18.03;;
12871;SDS011;6504;53.766;9.626;2023-03-23T01:55:46;20.43;;;18.27;;
12871;SDS011;6504;53.766;9.626;2023-03-23T01:58:17;20.30;;;18.40;;
12871;SDS011;6504;53.766;9.626;2023-03-23T02:00:53;21.00;;;18.90;;
12871;SDS011;6504;53.766;9.626;2023-03-23T02:03:25;20.53;;;18.53;;
12871;SDS011;6504;53.766;9.626;2023-03-23T02:05:57;20.20;;;18.37;;
12871;SDS011;6504;53.766;9.626;2023-03-23T02:08:26;21.73;;;19.63;;
12871;SDS011;6504;53.766;9.626;2023-03-23T02:11:08;21.57;;;19.47;;
12871;SDS011;6504;53.766;9.626;2023-03-23T02:13:44;21.37;;;19.27;;
12871;SDS011;6504;53.766;9.626;2023-03-23T02:16:17;21.67;;;19.47;;
12871;SDS011;6504;53.766;9.626;2023-03-23T02:19:03;21.33;;;19.33;;
12871;SDS011;6504;53.766;9.626;2023-03-23T02:24:44;21.83;;;19.83;;
12871;SDS011;6504;53.766;9.626;2023-03-23T02:27:27;21.43;;;19.27;;
12871;SDS011;6504;53.766;9.626;2023-03-23T02:33:37;22.50;;;20.30;;
12871;SDS011;6504;53.766;9.626;2023-03-23T02:36:14;21.63;;;19.63;;
12871;SDS011;6504;53.766;9.626;2023-03-23T02:38:53;21.67;;;19.57;;
12871;SDS011;6504;53.766;9.626;2023-03-23T02:41:27;21.80;;;19.60;;
12871;SDS011;6504;53.766;9.626;2023-03-23T02:43:59;22.63;;;20.47;;
12871;SDS011;6504;53.766;9.626;2023-03-23T02:46:31;22.33;;;20.13;;
12871;SDS011;6504;53.766;9.626;2023-03-23T02:49:03;22.27;;;19.97;;
12871;SDS011;6504;53.766;9.626;2023-03-23T02:51:34;22.00;;;19.70;;
12871;SDS011;6504;53.766;9.626;2023-03-23T02:54:04;21.13;;;19.13;;
12871;SDS011;6504;53.766;9.626;2023-03-23T02:56:39;22.23;;;19.80;;
12871;SDS011;6504;53.766;9.626;2023-03-23T02:59:08;21.53;;;19.33;;
12871;SDS011;6504;53.766;9.626;2023-03-23T03:01:57;21.97;;;19.87;;
12871;SDS011;6504;53.766;9.626;2023-03-23T03:04:33;22.50;;;20.10;;
12871;SDS011;6504;53.766;9.626;2023-03-23T03:07:11;22.43;;;20.20;;
12871;SDS011;6504;53.766;9.626;2023-03-23T03:09:48;22.73;;;20.67;;
12871;SDS011;6504;53.766;9.626;2023-03-23T03:12:23;22.70;;;20.60;;
12871;SDS011;6504;53.766;9.626;2023-03-23T03:15:00;22.20;;;20.10;;
12871;SDS011;6504;53.766;9.626;2023-03-23T03:17:37;23.23;;;21.03;;
12871;SDS011;6504;53.766;9.626;2023-03-23T03:20:15;23.40;;;21.13;;
12871;SDS011;6504;53.766;9.626;2023-03-23T03:22:47;22.60;;;20.43;;
12871;SDS011;6504;53.766;9.626;2023-03-23T03:25:18;21.87;;;19.80;;
12871;SDS011;6504;53.766;9.626;2023-03-23T03:27:48;23.00;;;20.70;;
12871;SDS011;6504;53.766;9.626;2023-03-23T03:30:20;22.07;;;19.97;;
12871;SDS011;6504;53.766;9.626;2023-03-23T03:32:52;23.03;;;20.73;;
12871;SDS011;6504;53.766;9.626;2023-03-23T03:35:23;22.00;;;20.00;;
12871;SDS011;6504;53.766;9.626;2023-03-23T03:37:53;22.27;;;20.17;;
12871;SDS011;6504;53.766;9.626;2023-03-23T03:40:26;22.10;;;20.00;;
12871;SDS011;6504;53.766;9.626;2023-03-23T03:42:55;21.73;;;19.67;;
12871;SDS011;6504;53.766;9.626;2023-03-23T03:45:23;23.03;;;20.77;;
12871;SDS011;6504;53.766;9.626;2023-03-23T03:47:55;24.13;;;21.63;;
12871;SDS011;6504;53.766;9.626;2023-03-23T03:50:28;22.40;;;20.33;;
12871;SDS011;6504;53.766;9.626;2023-03-23T03:52:58;22.13;;;19.97;;
12871;SDS011;6504;53.766;9.626;2023-03-23T03:55:26;21.97;;;20.00;;
12871;SDS011;6504;53.766;9.626;2023-03-23T03:57:55;23.47;;;21.17;;
12871;SDS011;6504;53.766;9.626;2023-03-23T04:00:25;22.40;;;20.50;;
12871;SDS011;6504;53.766;9.626;2023-03-23T04:02:54;22.87;;;20.77;;
12871;SDS011;6504;53.766;9.626;2023-03-23T04:05:22;21.43;;;19.50;;
12871;SDS011;6504;53.766;9.626;2023-03-23T04:07:52;21.93;;;19.93;;
12871;SDS011;6504;53.766;9.626;2023-03-23T04:10:27;23.03;;;20.73;;
12871;SDS011;6504;53.766;9.626;2023-03-23T04:12:56;22.37;;;20.27;;
12871;SDS011;6504;53.766;9.626;2023-03-23T04:15:25;22.57;;;20.53;;
12871;SDS011;6504;53.766;9.626;2023-03-23T04:17:53;22.50;;;20.20;;
12871;SDS011;6504;53.766;9.626;2023-03-23T04:20:23;22.13;;;20.03;;
12871;SDS011;6504;53.766;9.626;2023-03-23T04:22:53;22.47;;;20.33;;
12871;SDS011;6504;53.766;9.626;2023-03-23T04:25:22;22.17;;;20.17;;
12871;SDS011;6504;53.766;9.626;2023-03-23T04:27:51;21.63;;;19.53;;
12871;SDS011;6504;53.766;9.626;2023-03-23T04:30:22;22.97;;;20.67;;
12871;SDS011;6504;53.766;9.626;2023-03-23T04:32:52;21.03;;;19.07;;
12871;SDS011;6504;53.766;9.626;2023-03-23T04:35:22;22.23;;;20.10;;
12871;SDS011;6504;53.766;9.626;2023-03-23T04:37:55;21.47;;;19.50;;
12871;SDS011;6504;53.766;9.626;2023-03-23T04:40:23;21.57;;;19.57;;
12871;SDS011;6504;53.766;9.626;2023-03-23T04:42:54;20.47;;;18.63;;
12871;SDS011;6504;53.766;9.626;2023-03-23T04:45:31;22.10;;;20.10;;
12871;SDS011;6504;53.766;9.626;2023-03-23T04:48:03;22.07;;;20.17;;
12871;SDS011;6504;53.766;9.626;2023-03-23T04:50:32;22.13;;;20.03;;
12871;SDS011;6504;53.766;9.626;2023-03-23T04:53:03;22.30;;;20.30;;
12871;SDS011;6504;53.766;9.626;2023-03-23T04:55:33;23.20;;;21.00;;
12871;SDS011;6504;53.766;9.626;2023-03-23T04:58:02;22.63;;;20.60;;
12871;SDS011;6504;53.766;9.626;2023-03-23T05:00:34;22.13;;;20.03;;
12871;SDS011;6504;53.766;9.626;2023-03-23T05:03:03;22.83;;;20.67;;
12871;SDS011;6504;53.766;9.626;2023-03-23T05:05:33;20.63;;;18.77;;
12871;SDS011;6504;53.766;9.626;2023-03-23T05:08:05;21.30;;;19.40;;
12871;SDS011;6504;53.766;9.626;2023-03-23T05:10:33;22.20;;;20.07;;
12871;SDS011;6504;53.766;9.626;2023-03-23T05:13:02;21.77;;;19.70;;
12871;SDS011;6504;53.766;9.626;2023-03-23T05:15:31;22.07;;;19.97;;
12871;SDS011;6504;53.766;9.626;2023-03-23T05:18:00;22.23;;;20.23;;
12871;SDS011;6504;53.766;9.626;2023-03-23T05:20:28;22.23;;;20.03;;
12871;SDS011;6504;53.766;9.626;2023-03-23T05:23:03;21.80;;;19.73;;
12871;SDS011;6504;53.766;9.626;2023-03-23T05:25:35;21.07;;;19.13;;
12871;SDS011;6504;53.766;9.626;2023-03-23T05:28:06;20.57;;;18.73;;
12871;SDS011;6504;53.766;9.626;2023-03-23T05:30:37;21.73;;;19.63;;
12871;SDS011;6504;53.766;9.626;2023-03-23T05:33:06;22.60;;;19.30;;
12871;SDS011;6504;53.766;9.626;2023-03-23T05:35:36;20.77;;;18.83;;
12871;SDS011;6504;53.766;9.626;2023-03-23T05:38:07;21.00;;;19.07;;
12871;SDS011;6504;53.766;9.626;2023-03-23T05:40:35;21.47;;;19.30;;
12871;SDS011;6504;53.766;9.626;2023-03-23T05:43:03;20.67;;;18.57;;
12871;SDS011;6504;53.766;9.626;2023-03-23T05:45:33;19.73;;;17.93;;
12871;SDS011;6504;53.766;9.626;2023-03-23T05:48:02;20.07;;;18.20;;
12871;SDS011;6504;53.766;9.626;2023-03-23T05:50:32;20.33;;;18.27;;
12871;SDS011;6504;53.766;9.626;2023-03-23T05:53:01;19.83;;;17.87;;
12871;SDS011;6504;53.766;9.626;2023-03-23T05:55:32;19.70;;;17.70;;
12871;SDS011;6504;53.766;9.626;2023-03-23T05:58:00;21.13;;;19.10;;
12871;SDS011;6504;53.766;9.626;2023-03-23T06:00:28;20.57;;;18.57;;
12871;SDS011;6504;53.766;9.626;2023-03-23T06:03:00;19.30;;;17.50;;
12871;SDS011;6504;53.766;9.626;2023-03-23T06:05:29;19.37;;;17.53;;
12871;SDS011;6504;53.766;9.626;2023-03-23T06:07:58;18.73;;;17.10;;
12871;SDS011;6504;53.766;9.626;2023-03-23T06:10:27;19.87;;;17.87;;
12871;SDS011;6504;53.766;9.626;2023-03-23T06:12:58;19.20;;;17.30;;
12871;SDS011;6504;53.766;9.626;2023-03-23T06:15:29;19.63;;;17.63;;
12871;SDS011;6504;53.766;9.626;2023-03-23T06:17:59;19.97;;;18.07;;
12871;SDS011;6504;53.766;9.626;2023-03-23T06:20:31;20.43;;;18.50;;
12871;SDS011;6504;53.766;9.626;2023-03-23T06:23:01;19.73;;;17.67;;
12871;SDS011;6504;53.766;9.626;2023-03-23T06:25:32;18.63;;;16.83;;
12871;SDS011;6504;53.766;9.626;2023-03-23T06:28:02;18.53;;;16.73;;
12871;SDS011;6504;53.766;9.626;2023-03-23T06:30:31;18.57;;;16.77;;
12871;SDS011;6504;53.766;9.626;2023-03-23T06:33:03;18.57;;;16.77;;
12871;SDS011;6504;53.766;9.626;2023-03-23T06:35:35;17.33;;;15.73;;
12871;SDS011;6504;53.766;9.626;2023-03-23T06:38:03;17.83;;;16.03;;
12871;SDS011;6504;53.766;9.626;2023-03-23T06:40:31;16.87;;;15.27;;
12871;SDS011;6504;53.766;9.626;2023-03-23T06:43:03;16.73;;;14.97;;
12871;SDS011;6504;53.766;9.626;2023-03-23T06:45:31;16.73;;;14.90;;
12871;SDS011;6504;53.766;9.626;2023-03-23T06:48:00;16.13;;;14.53;;
12871;SDS011;6504;53.766;9.626;2023-03-23T06:50:29;15.27;;;13.73;;
12871;SDS011;6504;53.766;9.626;2023-03-23T06:52:57;16.30;;;14.60;;
12871;SDS011;6504;53.766;9.626;2023-03-23T06:55:28;15.80;;;13.90;;
12871;SDS011;6504;53.766;9.626;2023-03-23T06:57:59;14.87;;;13.13;;
12871;SDS011;6504;53.766;9.626;2023-03-23T07:00:31;14.20;;;12.80;;
12871;SDS011;6504;53.766;9.626;2023-03-23T07:02:59;14.77;;;13.27;;
12871;SDS011;6504;53.766;9.626;2023-03-23T07:05:28;14.40;;;13.00;;
12871;SDS011;6504;53.766;9.626;2023-03-23T07:07:56;13.37;;;12.13;;
12871;SDS011;6504;53.766;9.626;2023-03-23T07:10:30;13.73;;;12.33;;
12871;SDS011;6504;53.766;9.626;2023-03-23T07:12:59;13.07;;;11.87;;
12871;SDS011;6504;53.766;9.626;2023-03-23T07:15:27;13.43;;;12.23;;
12871;SDS011;6504;53.766;9.626;2023-03-23T07:17:58;13.27;;;11.90;;
12871;SDS011;6504;53.766;9.626;2023-03-23T07:20:27;13.70;;;11.83;;
12871;SDS011;6504;53.766;9.626;2023-03-23T07:22:55;12.60;;;11.40;;
12871;SDS011;6504;53.766;9.626;2023-03-23T07:25:23;21.03;;;12.97;;
12871;SDS011;6504;53.766;9.626;2023-03-23T07:27:52;6.83;;;4.53;;
12871;SDS011;6504;53.766;9.626;2023-03-23T07:30:21;3.87;;;2.87;;
12871;SDS011;6504;53.766;9.626;2023-03-23T07:32:50;3.83;;;2.70;;
12871;SDS011;6504;53.766;9.626;2023-03-23T07:37:52;7.07;;;6.27;;
12871;SDS011;6504;53.766;9.626;2023-03-23T07:40:20;9.20;;;8.40;;
12871;SDS011;6504;53.766;9.626;2023-03-23T07:42:51;9.10;;;8.20;;
12871;SDS011;6504;53.766;9.626;2023-03-23T07:45:20;9.23;;;8.33;;
12871;SDS011;6504;53.766;9.626;2023-03-23T07:47:49;9.33;;;7.93;;
12871;SDS011;6504;53.766;9.626;2023-03-23T07:50:21;8.97;;;8.07;;
12871;SDS011;6504;53.766;9.626;2023-03-23T07:52:53;9.50;;;7.13;;
12871;SDS011;6504;53.766;9.626;2023-03-23T07:55:22;8.10;;;6.90;;
12871;SDS011;6504;53.766;9.626;2023-03-23T07:57:50;6.70;;;5.63;;
12871;SDS011;6504;53.766;9.626;2023-03-23T08:00:20;6.77;;;4.37;;
12871;SDS011;6504;53.766;9.626;2023-03-23T08:02:54;6.67;;;4.53;;
12871;SDS011;6504;53.766;9.626;2023-03-23T08:05:36;8.50;;;4.57;;
12871;SDS011;6504;53.766;9.626;2023-03-23T08:08:07;6.30;;;2.93;;
12871;SDS011;6504;53.766;9.626;2023-03-23T08:10:39;5.67;;;3.20;;
12871;SDS011;6504;53.766;9.626;2023-03-23T08:13:08;6.47;;;2.90;;
12871;SDS011;6504;53.766;9.626;2023-03-23T08:15:37;4.23;;;2.73;;
12871;SDS011;6504;53.766;9.626;2023-03-23T08:18:08;5.83;;;2.77;;
12871;SDS011;6504;53.766;9.626;2023-03-23T08:20:38;3.20;;;2.40;;
12871;SDS011;6504;53.766;9.626;2023-03-23T08:23:07;4.13;;;2.50;;
12871;SDS011;6504;53.766;9.626;2023-03-23T08:25:38;3.97;;;2.30;;
12871;SDS011;6504;53.766;9.626;2023-03-23T08:28:07;6.83;;;2.57;;
12871;SDS011;6504;53.766;9.626;2023-03-23T08:30:35;2.40;;;2.00;;
12871;SDS011;6504;53.766;9.626;2023-03-23T08:33:06;4.77;;;2.20;;
12871;SDS011;6504;53.766;9.626;2023-03-23T08:35:35;6.00;;;2.30;;
12871;SDS011;6504;53.766;9.626;2023-03-23T08:38:10;5.43;;;2.10;;
12871;SDS011;6504;53.766;9.626;2023-03-23T08:40:39;3.73;;;2.40;;
12871;SDS011;6504;53.766;9.626;2023-03-23T08:43:09;5.50;;;2.20;;
12871;SDS011;6504;53.766;9.626;2023-03-23T08:45:37;7.70;;;2.30;;
12871;SDS011;6504;53.766;9.626;2023-03-23T08:48:08;8.27;;;2.53;;
12871;SDS011;6504;53.766;9.626;2023-03-23T08:50:39;7.03;;;2.77;;
12871;SDS011;6504;53.766;9.626;2023-03-23T08:53:08;9.57;;;3.27;;
12871;SDS011;6504;53.766;9.626;2023-03-23T08:55:37;8.37;;;3.10;;
12871;SDS011;6504;53.766;9.626;2023-03-23T08:58:08;8.23;;;3.10;;
12871;SDS011;6504;53.766;9.626;2023-03-23T09:00:37;5.50;;;2.67;;
12871;SDS011;6504;53.766;9.626;2023-03-23T09:03:07;6.27;;;3.10;;
12871;SDS011;6504;53.766;9.626;2023-03-23T09:05:37;4.90;;;2.93;;
12871;SDS011;6504;53.766;9.626;2023-03-23T09:08:11;6.23;;;2.73;;
12871;SDS011;6504;53.766;9.626;2023-03-23T09:10:40;7.83;;;2.90;;
12871;SDS011;6504;53.766;9.626;2023-03-23T09:13:08;6.73;;;2.90;;
12871;SDS011;6504;53.766;9.626;2023-03-23T09:15:37;6.13;;;2.83;;
12871;SDS011;6504;53.766;9.626;2023-03-23T09:18:08;6.07;;;2.93;;
12871;SDS011;6504;53.766;9.626;2023-03-23T09:20:37;9.20;;;2.97;;
12871;SDS011;6504;53.766;9.626;2023-03-23T09:23:18;6.90;;;2.97;;
12871;SDS011;6504;53.766;9.626;2023-03-23T09:25:47;8.53;;;3.13;;
12871;SDS011;6504;53.766;9.626;2023-03-23T09:28:18;7.50;;;2.80;;
12871;SDS011;6504;53.766;9.626;2023-03-23T09:30:47;6.90;;;2.63;;
12871;SDS011;6504;53.766;9.626;2023-03-23T09:33:21;7.63;;;3.30;;
12871;SDS011;6504;53.766;9.626;2023-03-23T09:35:53;8.30;;;3.30;;
12871;SDS011;6504;53.766;9.626;2023-03-23T09:38:23;5.93;;;2.97;;
12871;SDS011;6504;53.766;9.626;2023-03-23T09:40:53;8.80;;;3.07;;
12871;SDS011;6504;53.766;9.626;2023-03-23T09:43:35;7.40;;;3.60;;
12871;SDS011;6504;53.766;9.626;2023-03-23T09:46:18;8.00;;;3.50;;
12871;SDS011;6504;53.766;9.626;2023-03-23T09:48:57;8.17;;;3.23;;
12871;SDS011;6504;53.766;9.626;2023-03-23T09:51:36;9.07;;;3.40;;
12871;SDS011;6504;53.766;9.626;2023-03-23T09:54:11;9.60;;;3.17;;
12871;SDS011;6504;53.766;9.626;2023-03-23T09:56:45;8.97;;;2.80;;
12871;SDS011;6504;53.766;9.626;2023-03-23T09:59:17;9.97;;;3.13;;
12871;SDS011;6504;53.766;9.626;2023-03-23T10:01:51;8.10;;;2.70;;
12871;SDS011;6504;53.766;9.626;2023-03-23T10:04:30;9.07;;;3.07;;
12871;SDS011;6504;53.766;9.626;2023-03-23T10:07:12;7.37;;;2.60;;
12871;SDS011;6504;53.766;9.626;2023-03-23T10:09:42;8.27;;;2.87;;
12871;SDS011;6504;53.766;9.626;2023-03-23T10:12:21;9.37;;;3.00;;
12871;SDS011;6504;53.766;9.626;2023-03-23T10:15:08;9.73;;;2.67;;
12871;SDS011;6504;53.766;9.626;2023-03-23T10:17:48;8.53;;;2.50;;
12871;SDS011;6504;53.766;9.626;2023-03-23T10:20:26;8.60;;;2.77;;
12871;SDS011;6504;53.766;9.626;2023-03-23T10:23:09;12.00;;;3.17;;
12871;SDS011;6504;53.766;9.626;2023-03-23T10:26:04;7.67;;;2.60;;
12871;SDS011;6504;53.766;9.626;2023-03-23T10:28:39;7.10;;;2.60;;
12871;SDS011;6504;53.766;9.626;2023-03-23T10:31:12;9.20;;;2.77;;
12871;SDS011;6504;53.766;9.626;2023-03-23T10:33:45;10.07;;;2.50;;
12871;SDS011;6504;53.766;9.626;2023-03-23T10:36:16;7.57;;;2.60;;
12871;SDS011;6504;53.766;9.626;2023-03-23T10:38:56;8.43;;;2.63;;
12871;SDS011;6504;53.766;9.626;2023-03-23T10:41:27;8.40;;;2.80;;
12871;SDS011;6504;53.766;9.626;2023-03-23T10:43:56;7.90;;;2.70;;
12871;SDS011;6504;53.766;9.626;2023-03-23T10:46:27;9.00;;;3.00;;
12871;SDS011;6504;53.766;9.626;2023-03-23T10:49:06;10.80;;;2.73;;
12871;SDS011;6504;53.766;9.626;2023-03-23T10:51:39;8.93;;;2.90;;
12871;SDS011;6504;53.766;9.626;2023-03-23T10:54:11;9.40;;;3.10;;
12871;SDS011;6504;53.766;9.626;2023-03-23T10:56:52;9.43;;;3.07;;
12871;SDS011;6504;53.766;9.626;2023-03-23T10:59:25;7.83;;;3.10;;
12871;SDS011;6504;53.766;9.626;2023-03-23T11:01:58;9.27;;;2.87;;
12871;SDS011;6504;53.766;9.626;2023-03-23T11:04:30;9.10;;;2.67;;
12871;SDS011;6504;53.766;9.626;2023-03-23T11:07:01;13.17;;;3.00;;
12871;SDS011;6504;53.766;9.626;2023-03-23T11:09:52;9.53;;;3.33;;
12871;SDS011;6504;53.766;9.626;2023-03-23T11:12:22;9.70;;;3.27;;
12871;SDS011;6504;53.766;9.626;2023-03-23T11:15:02;10.33;;;3.60;;
12871;SDS011;6504;53.766;9.626;2023-03-23T11:17:54;12.60;;;3.70;;
12871;SDS011;6504;53.766;9.626;2023-03-23T11:20:28;9.90;;;3.40;;
12871;SDS011;6504;53.766;9.626;2023-03-23T11:23:01;9.57;;;3.50;;
12871;SDS011;6504;53.766;9.626;2023-03-23T11:25:52;13.43;;;3.33;;
12871;SDS011;6504;53.766;9.626;2023-03-23T11:28:27;8.13;;;3.27;;
12871;SDS011;6504;53.766;9.626;2023-03-23T11:30:58;12.67;;;3.67;;
12871;SDS011;6504;53.766;9.626;2023-03-23T11:33:29;11.20;;;4.00;;
12871;SDS011;6504;53.766;9.626;2023-03-23T11:35:57;13.43;;;4.07;;
12871;SDS011;6504;53.766;9.626;2023-03-23T11:38:26;9.70;;;4.00;;
12871;SDS011;6504;53.766;9.626;2023-03-23T11:40:57;11.27;;;3.67;;
12871;SDS011;6504;53.766;9.626;2023-03-23T11:43:27;12.73;;;4.00;;
12871;SDS011;6504;53.766;9.626;2023-03-23T11:45:59;12.10;;;3.70;;
12871;SDS011;6504;53.766;9.626;2023-03-23T11:48:33;12.53;;;3.73;;
12871;SDS011;6504;53.766;9.626;2023-03-23T11:51:07;11.97;;;4.20;;
12871;SDS011;6504;53.766;9.626;2023-03-23T11:53:45;13.53;;;4.70;;
12871;SDS011;6504;53.766;9.626;2023-03-23T11:56:23;9.03;;;3.87;;
12871;SDS011;6504;53.766;9.626;2023-03-23T11:58:54;13.10;;;4.73;;
12871;SDS011;6504;53.766;9.626;2023-03-23T12:01:32;11.63;;;4.37;;
12871;SDS011;6504;53.766;9.626;2023-03-23T12:04:27;9.33;;;2.90;;
12871;SDS011;6504;53.766;9.626;2023-03-23T12:07:09;10.80;;;3.73;;
12871;SDS011;6504;53.766;9.626;2023-03-23T12:10:16;12.23;;;3.27;;
12871;SDS011;6504;53.766;9.626;2023-03-23T12:12:57;11.40;;;3.17;;
12871;SDS011;6504;53.766;9.626;2023-03-23T12:15:36;15.17;;;4.10;;
12871;SDS011;6504;53.766;9.626;2023-03-23T12:18:15;8.43;;;3.20;;
12871;SDS011;6504;53.766;9.626;2023-03-23T12:20:53;10.97;;;3.93;;
12871;SDS011;6504;53.766;9.626;2023-03-23T12:23:31;11.53;;;3.43;;
12871;SDS011;6504;53.766;9.626;2023-03-23T12:26:14;10.97;;;3.47;;
12871;SDS011;6504;53.766;9.626;2023-03-23T12:29:01;11.80;;;3.30;;
12871;SDS011;6504;53.766;9.626;2023-03-23T12:31:49;11.13;;;3.63;;
12871;SDS011;6504;53.766;9.626;2023-03-23T12:34:29;11.20;;;3.17;;
12871;SDS011;6504;53.766;9.626;2023-03-23T12:37:14;10.33;;;3.63;;
12871;SDS011;6504;53.766;9.626;2023-03-23T12:39:50;11.70;;;3.30;;
12871;SDS011;6504;53.766;9.626;2023-03-23T12:42:37;11.83;;;3.40;;
12871;SDS011;6504;53.766;9.626;2023-03-23T12:45:14;10.50;;;4.07;;
12871;SDS011;6504;53.766;9.626;2023-03-23T12:47:50;12.47;;;3.50;;
12871;SDS011;6504;53.766;9.626;2023-03-23T12:50:25;11.60;;;3.33;;
12871;SDS011;6504;53.766;9.626;2023-03-23T12:52:59;9.83;;;3.50;;
12871;SDS011;6504;53.766;9.626;2023-03-23T12:55:33;10.83;;;3.53;;
12871;SDS011;6504;53.766;9.626;2023-03-23T12:58:05;11.43;;;3.43;;
12871;SDS011;6504;53.766;9.626;2023-03-23T13:00:48;11.13;;;3.30;;
12871;SDS011;6504;53.766;9.626;2023-03-23T13:03:21;14.67;;;3.50;;
12871;SDS011;6504;53.766;9.626;2023-03-23T13:05:54;9.10;;;3.57;;
12871;SDS011;6504;53.766;9.626;2023-03-23T13:08:30;12.63;;;3.90;;
12871;SDS011;6504;53.766;9.626;2023-03-23T13:11:01;11.20;;;4.23;;
12871;SDS011;6504;53.766;9.626;2023-03-23T13:13:40;11.73;;;3.30;;
12871;SDS011;6504;53.766;9.626;2023-03-23T13:16:13;14.73;;;3.83;;
12871;SDS011;6504;53.766;9.626;2023-03-23T13:18:47;16.13;;;3.70;;
12871;SDS011;6504;53.766;9.626;2023-03-23T13:21:22;9.10;;;3.60;;
12871;SDS011;6504;53.766;9.626;2023-03-23T13:23:53;13.90;;;4.43;;
12871;SDS011;6504;53.766;9.626;2023-03-23T13:26:23;12.90;;;3.80;;
12871;SDS011;6504;53.766;9.626;2023-03-23T13:28:55;12.13;;;3.97;;
12871;SDS011;6504;53.766;9.626;2023-03-23T13:31:26;12.57;;;3.73;;
12871;SDS011;6504;53.766;9.626;2023-03-23T13:33:59;8.47;;;3.13;;
12871;SDS011;6504;53.766;9.626;2023-03-23T13:36:30;8.57;;;3.03;;
12871;SDS011;6504;53.766;9.626;2023-03-23T13:39:02;9.37;;;3.47;;
12871;SDS011;6504;53.766;9.626;2023-03-23T13:41:34;7.97;;;3.20;;
12871;SDS011;6504;53.766;9.626;2023-03-23T13:44:19;9.47;;;3.30;;
12871;SDS011;6504;53.766;9.626;2023-03-23T13:47:06;8.27;;;3.33;;
12871;SDS011;6504;53.766;9.626;2023-03-23T13:49:44;7.07;;;3.30;;
12871;SDS011;6504;53.766;9.626;2023-03-23T13:52:14;7.80;;;3.20;;
12871;SDS011;6504;53.766;9.626;2023-03-23T13:54:44;9.87;;;3.33;;
12871;SDS011;6504;53.766;9.626;2023-03-23T13:57:33;8.00;;;3.03;;
12871;SDS011;6504;53.766;9.626;2023-03-23T14:00:11;6.40;;;3.10;;
12871;SDS011;6504;53.766;9.626;2023-03-23T14:02:57;9.37;;;3.33;;
12871;SDS011;6504;53.766;9.626;2023-03-23T14:05:29;8.77;;;2.87;;
12871;SDS011;6504;53.766;9.626;2023-03-23T14:07:59;8.57;;;3.73;;
12871;SDS011;6504;53.766;9.626;2023-03-23T14:10:44;13.03;;;4.00;;
12871;SDS011;6504;53.766;9.626;2023-03-23T14:13:18;8.13;;;3.60;;
12871;SDS011;6504;53.766;9.626;2023-03-23T14:15:57;11.57;;;4.10;;
12871;SDS011;6504;53.766;9.626;2023-03-23T14:18:30;7.97;;;3.70;;
12871;SDS011;6504;53.766;9.626;2023-03-23T14:21:06;7.07;;;3.87;;
12871;SDS011;6504;53.766;9.626;2023-03-23T14:23:41;7.87;;;3.90;;
12871;SDS011;6504;53.766;9.626;2023-03-23T14:26:10;9.67;;;3.67;;
12871;SDS011;6504;53.766;9.626;2023-03-23T14:28:42;7.50;;;3.70;;
12871;SDS011;6504;53.766;9.626;2023-03-23T14:32:00;9.73;;;4.50;;
12871;SDS011;6504;53.766;9.626;2023-03-23T14:38:19;8.97;;;3.80;;
12871;SDS011;6504;53.766;9.626;2023-03-23T14:40:49;8.73;;;3.70;;
12871;SDS011;6504;53.766;9.626;2023-03-23T14:43:17;6.73;;;3.57;;
12871;SDS011;6504;53.766;9.626;2023-03-23T14:45:46;6.43;;;3.87;;
12871;SDS011;6504;53.766;9.626;2023-03-23T14:48:22;7.10;;;3.50;;
12871;SDS011;6504;53.766;9.626;2023-03-23T14:50:51;7.03;;;3.20;;
12871;SDS011;6504;53.766;9.626;2023-03-23T14:53:23;10.27;;;3.60;;
12871;SDS011;6504;53.766;9.626;2023-03-23T14:55:52;8.23;;;3.70;;
12871;SDS011;6504;53.766;9.626;2023-03-23T14:58:21;7.67;;;3.63;;
12871;SDS011;6504;53.766;9.626;2023-03-23T15:00:51;8.60;;;3.10;;
12871;SDS011;6504;53.766;9.626;2023-03-23T15:03:23;7.93;;;3.20;;
12871;SDS011;6504;53.766;9.626;2023-03-23T15:05:57;8.10;;;3.50;;
12871;SDS011;6504;53.766;9.626;2023-03-23T15:08:26;10.07;;;3.40;;
12871;SDS011;6504;53.766;9.626;2023-03-23T15:10:59;6.37;;;3.67;;
12871;SDS011;6504;53.766;9.626;2023-03-23T15:13:31;6.70;;;2.93;;
12871;SDS011;6504;53.766;9.626;2023-03-23T15:16:02;7.53;;;3.10;;
12871;SDS011;6504;53.766;9.626;2023-03-23T15:18:32;5.53;;;3.30;;
12871;SDS011;6504;53.766;9.626;2023-03-23T15:21:09;9.63;;;3.00;;
12871;SDS011;6504;53.766;9.626;2023-03-23T15:23:41;8.60;;;3.23;;
12871;SDS011;6504;53.766;9.626;2023-03-23T15:26:17;8.17;;;3.43;;
12871;SDS011;6504;53.766;9.626;2023-03-23T15:28:50;7.63;;;3.23;;
12871;SDS011;6504;53.766;9.626;2023-03-23T15:31:28;11.83;;;3.60;;
12871;SDS011;6504;53.766;9.626;2023-03-23T15:33:57;7.70;;;3.17;;
12871;SDS011;6504;53.766;9.626;2023-03-23T15:36:33;5.80;;;2.87;;